Black Horse, Ohio
Current Conditions -  °F | °C
As of 5:21 AM on Wednesday 26 Nov 2014 (Local Time) from KPOV Reporting Station
Broken Clouds Broken Clouds  
Wind Chill: 30°   Ceiling: 2800
Heat Index: 30°   Visibility: 10mi
Dew Point: 23°   Wind: 3mph
Humidity: 76%   Direction: 60°ENE
Pressure: 30.12"   Gusts: NA
Location:  41.1736°N, 81.1686°W
Report Text: KPOV 261021Z AUTO 06003KT 10SM BKN028 BKN120 M01/M05 A3012 RMK AO2 T10121050
Loading
Personal Weather Stations






























Interactive Weather Map New forecast layout! Learn more

10-Day Weather Forecast

Advertisements
Track Severe Weather on mobile